sensor_id;sensor_type;location;lat;lon;timestamp;P1;durP1;ratioP1;P2;durP2;ratioP2
7191;SDS011;3637;51.494;11.958;2023-10-19T00:01:15;14.67;;;12.47;;
7191;SDS011;3637;51.494;11.958;2023-10-19T00:04:18;16.50;;;12.13;;
7191;SDS011;3637;51.494;11.958;2023-10-19T00:07:22;14.37;;;11.07;;
7191;SDS011;3637;51.494;11.958;2023-10-19T00:10:23;16.30;;;11.93;;
7191;SDS011;3637;51.494;11.958;2023-10-19T00:13:26;14.57;;;11.57;;
7191;SDS011;3637;51.494;11.958;2023-10-19T00:16:30;15.00;;;11.53;;
7191;SDS011;3637;51.494;11.958;2023-10-19T00:19:35;20.27;;;12.27;;
7191;SDS011;3637;51.494;11.958;2023-10-19T00:22:39;16.10;;;12.17;;
7191;SDS011;3637;51.494;11.958;2023-10-19T00:25:41;15.27;;;12.40;;
7191;SDS011;3637;51.494;11.958;2023-10-19T00:28:42;15.17;;;11.43;;
7191;SDS011;3637;51.494;11.958;2023-10-19T00:31:47;14.90;;;11.63;;
7191;SDS011;3637;51.494;11.958;2023-10-19T00:34:50;15.23;;;12.23;;
7191;SDS011;3637;51.494;11.958;2023-10-19T00:37:53;15.37;;;11.60;;
7191;SDS011;3637;51.494;11.958;2023-10-19T00:40:59;14.93;;;12.47;;
7191;SDS011;3637;51.494;11.958;2023-10-19T00:44:06;14.40;;;12.13;;
7191;SDS011;3637;51.494;11.958;2023-10-19T00:47:12;15.80;;;12.77;;
7191;SDS011;3637;51.494;11.958;2023-10-19T00:50:15;15.63;;;12.47;;
7191;SDS011;3637;51.494;11.958;2023-10-19T00:53:22;17.83;;;12.10;;
7191;SDS011;3637;51.494;11.958;2023-10-19T00:56:24;15.80;;;12.67;;
7191;SDS011;3637;51.494;11.958;2023-10-19T00:59:28;15.60;;;12.70;;
7191;SDS011;3637;51.494;11.958;2023-10-19T01:02:36;17.10;;;13.80;;
7191;SDS011;3637;51.494;11.958;2023-10-19T01:05:44;14.33;;;12.00;;
7191;SDS011;3637;51.494;11.958;2023-10-19T01:08:50;16.37;;;12.83;;
7191;SDS011;3637;51.494;11.958;2023-10-19T01:11:52;16.77;;;12.03;;
7191;SDS011;3637;51.494;11.958;2023-10-19T01:15:00;15.10;;;11.60;;
7191;SDS011;3637;51.494;11.958;2023-10-19T01:18:08;15.97;;;12.67;;
7191;SDS011;3637;51.494;11.958;2023-10-19T01:21:14;21.27;;;15.00;;
7191;SDS011;3637;51.494;11.958;2023-10-19T01:24:20;21.40;;;13.90;;
7191;SDS011;3637;51.494;11.958;2023-10-19T01:27:32;14.13;;;12.33;;
7191;SDS011;3637;51.494;11.958;2023-10-19T01:30:34;18.20;;;13.13;;
7191;SDS011;3637;51.494;11.958;2023-10-19T01:33:37;15.77;;;12.83;;
7191;SDS011;3637;51.494;11.958;2023-10-19T01:36:40;17.23;;;12.63;;
7191;SDS011;3637;51.494;11.958;2023-10-19T01:39:44;17.90;;;12.50;;
7191;SDS011;3637;51.494;11.958;2023-10-19T01:42:46;16.10;;;12.40;;
7191;SDS011;3637;51.494;11.958;2023-10-19T01:45:47;18.37;;;13.67;;
7191;SDS011;3637;51.494;11.958;2023-10-19T01:48:54;15.93;;;12.77;;
7191;SDS011;3637;51.494;11.958;2023-10-19T01:51:56;17.83;;;13.47;;
7191;SDS011;3637;51.494;11.958;2023-10-19T01:54:59;16.77;;;12.63;;
7191;SDS011;3637;51.494;11.958;2023-10-19T01:58:07;17.80;;;13.80;;
7191;SDS011;3637;51.494;11.958;2023-10-19T02:01:10;17.00;;;13.37;;
7191;SDS011;3637;51.494;11.958;2023-10-19T02:04:19;19.67;;;13.93;;
7191;SDS011;3637;51.494;11.958;2023-10-19T02:07:21;16.93;;;12.87;;
7191;SDS011;3637;51.494;11.958;2023-10-19T02:10:24;15.10;;;13.23;;
7191;SDS011;3637;51.494;11.958;2023-10-19T02:13:27;17.30;;;13.43;;
7191;SDS011;3637;51.494;11.958;2023-10-19T02:16:29;17.47;;;13.47;;
7191;SDS011;3637;51.494;11.958;2023-10-19T02:19:32;16.97;;;13.17;;
7191;SDS011;3637;51.494;11.958;2023-10-19T02:22:33;19.40;;;13.70;;
7191;SDS011;3637;51.494;11.958;2023-10-19T02:25:37;19.37;;;13.80;;
7191;SDS011;3637;51.494;11.958;2023-10-19T02:28:38;16.97;;;13.40;;
7191;SDS011;3637;51.494;11.958;2023-10-19T02:31:40;18.00;;;13.63;;
7191;SDS011;3637;51.494;11.958;2023-10-19T02:34:42;17.90;;;14.20;;
7191;SDS011;3637;51.494;11.958;2023-10-19T02:37:44;19.17;;;13.53;;
7191;SDS011;3637;51.494;11.958;2023-10-19T02:40:46;18.33;;;13.50;;
7191;SDS011;3637;51.494;11.958;2023-10-19T02:43:48;16.17;;;13.40;;
7191;SDS011;3637;51.494;11.958;2023-10-19T02:47:01;17.80;;;13.93;;
7191;SDS011;3637;51.494;11.958;2023-10-19T02:50:09;19.00;;;13.37;;
7191;SDS011;3637;51.494;11.958;2023-10-19T02:53:13;19.17;;;14.13;;
7191;SDS011;3637;51.494;11.958;2023-10-19T02:56:16;18.73;;;14.47;;
7191;SDS011;3637;51.494;11.958;2023-10-19T02:59:19;19.53;;;14.83;;
7191;SDS011;3637;51.494;11.958;2023-10-19T03:02:23;22.07;;;15.33;;
7191;SDS011;3637;51.494;11.958;2023-10-19T03:05:26;19.20;;;14.77;;
7191;SDS011;3637;51.494;11.958;2023-10-19T03:08:28;19.33;;;14.67;;
7191;SDS011;3637;51.494;11.958;2023-10-19T03:11:30;18.73;;;14.17;;
7191;SDS011;3637;51.494;11.958;2023-10-19T03:14:32;18.60;;;15.03;;
7191;SDS011;3637;51.494;11.958;2023-10-19T03:17:34;19.60;;;15.47;;
7191;SDS011;3637;51.494;11.958;2023-10-19T03:20:37;21.90;;;15.93;;
7191;SDS011;3637;51.494;11.958;2023-10-19T03:23:41;20.47;;;15.60;;
7191;SDS011;3637;51.494;11.958;2023-10-19T03:26:43;21.73;;;15.17;;
7191;SDS011;3637;51.494;11.958;2023-10-19T03:29:49;26.23;;;16.67;;
7191;SDS011;3637;51.494;11.958;2023-10-19T03:32:55;20.93;;;15.83;;
7191;SDS011;3637;51.494;11.958;2023-10-19T03:35:59;20.53;;;16.17;;
7191;SDS011;3637;51.494;11.958;2023-10-19T03:39:01;23.93;;;16.47;;
7191;SDS011;3637;51.494;11.958;2023-10-19T03:42:12;22.00;;;15.93;;
7191;SDS011;3637;51.494;11.958;2023-10-19T03:45:14;23.10;;;17.43;;
7191;SDS011;3637;51.494;11.958;2023-10-19T03:48:17;26.50;;;16.57;;
7191;SDS011;3637;51.494;11.958;2023-10-19T03:51:25;22.00;;;16.77;;
7191;SDS011;3637;51.494;11.958;2023-10-19T03:54:29;24.83;;;17.20;;
7191;SDS011;3637;51.494;11.958;2023-10-19T03:57:35;22.80;;;16.33;;
7191;SDS011;3637;51.494;11.958;2023-10-19T04:00:41;25.20;;;17.80;;
7191;SDS011;3637;51.494;11.958;2023-10-19T04:03:44;22.40;;;16.30;;
7191;SDS011;3637;51.494;11.958;2023-10-19T04:06:46;24.63;;;17.47;;
7191;SDS011;3637;51.494;11.958;2023-10-19T04:09:49;23.10;;;17.87;;
7191;SDS011;3637;51.494;11.958;2023-10-19T04:13:10;23.90;;;17.30;;
7191;SDS011;3637;51.494;11.958;2023-10-19T04:16:12;24.10;;;17.63;;
7191;SDS011;3637;51.494;11.958;2023-10-19T04:19:14;26.63;;;17.67;;
7191;SDS011;3637;51.494;11.958;2023-10-19T04:22:16;23.07;;;17.70;;
7191;SDS011;3637;51.494;11.958;2023-10-19T04:25:23;22.50;;;16.77;;
7191;SDS011;3637;51.494;11.958;2023-10-19T04:28:27;31.33;;;20.57;;
7191;SDS011;3637;51.494;11.958;2023-10-19T04:31:38;24.80;;;18.63;;
7191;SDS011;3637;51.494;11.958;2023-10-19T04:34:49;28.80;;;18.93;;
7191;SDS011;3637;51.494;11.958;2023-10-19T04:37:52;26.10;;;18.63;;
7191;SDS011;3637;51.494;11.958;2023-10-19T04:40:54;27.67;;;18.73;;
7191;SDS011;3637;51.494;11.958;2023-10-19T04:43:57;25.03;;;18.47;;
7191;SDS011;3637;51.494;11.958;2023-10-19T04:47:00;27.23;;;18.47;;
7191;SDS011;3637;51.494;11.958;2023-10-19T04:50:02;26.37;;;19.00;;
7191;SDS011;3637;51.494;11.958;2023-10-19T04:53:05;26.20;;;19.20;;
7191;SDS011;3637;51.494;11.958;2023-10-19T04:56:08;25.90;;;18.60;;
7191;SDS011;3637;51.494;11.958;2023-10-19T04:59:13;26.63;;;18.83;;
7191;SDS011;3637;51.494;11.958;2023-10-19T05:02:15;25.83;;;18.53;;
7191;SDS011;3637;51.494;11.958;2023-10-19T05:05:17;26.60;;;18.60;;
7191;SDS011;3637;51.494;11.958;2023-10-19T05:08:19;28.53;;;19.63;;
7191;SDS011;3637;51.494;11.958;2023-10-19T05:11:25;28.27;;;19.23;;
7191;SDS011;3637;51.494;11.958;2023-10-19T05:14:28;27.83;;;19.73;;
7191;SDS011;3637;51.494;11.958;2023-10-19T05:17:31;25.90;;;18.63;;
7191;SDS011;3637;51.494;11.958;2023-10-19T05:20:33;28.10;;;18.30;;
7191;SDS011;3637;51.494;11.958;2023-10-19T05:23:39;25.03;;;17.67;;
7191;SDS011;3637;51.494;11.958;2023-10-19T05:26:41;26.63;;;18.27;;
7191;SDS011;3637;51.494;11.958;2023-10-19T05:29:44;26.87;;;19.00;;
7191;SDS011;3637;51.494;11.958;2023-10-19T05:32:46;26.67;;;18.27;;
7191;SDS011;3637;51.494;11.958;2023-10-19T05:35:49;24.10;;;18.40;;
7191;SDS011;3637;51.494;11.958;2023-10-19T05:38:51;25.67;;;18.87;;
7191;SDS011;3637;51.494;11.958;2023-10-19T05:41:53;24.83;;;18.03;;
7191;SDS011;3637;51.494;11.958;2023-10-19T05:44:56;24.67;;;17.93;;
7191;SDS011;3637;51.494;11.958;2023-10-19T05:47:59;24.97;;;18.37;;
7191;SDS011;3637;51.494;11.958;2023-10-19T05:51:03;28.07;;;19.43;;
7191;SDS011;3637;51.494;11.958;2023-10-19T05:54:05;26.20;;;18.57;;
7191;SDS011;3637;51.494;11.958;2023-10-19T05:57:08;24.80;;;17.67;;
7191;SDS011;3637;51.494;11.958;2023-10-19T06:00:12;26.27;;;18.90;;
7191;SDS011;3637;51.494;11.958;2023-10-19T06:03:14;27.17;;;19.17;;
7191;SDS011;3637;51.494;11.958;2023-10-19T06:06:16;26.80;;;18.70;;
7191;SDS011;3637;51.494;11.958;2023-10-19T06:09:17;30.60;;;18.60;;
7191;SDS011;3637;51.494;11.958;2023-10-19T06:12:20;27.47;;;19.27;;
7191;SDS011;3637;51.494;11.958;2023-10-19T06:15:23;25.50;;;17.53;;
7191;SDS011;3637;51.494;11.958;2023-10-19T06:18:25;27.20;;;18.73;;
7191;SDS011;3637;51.494;11.958;2023-10-19T06:21:29;24.87;;;18.33;;
7191;SDS011;3637;51.494;11.958;2023-10-19T06:24:31;27.97;;;19.27;;
7191;SDS011;3637;51.494;11.958;2023-10-19T06:27:33;28.33;;;18.90;;
7191;SDS011;3637;51.494;11.958;2023-10-19T06:30:36;27.30;;;19.43;;
7191;SDS011;3637;51.494;11.958;2023-10-19T06:33:40;27.60;;;18.57;;
7191;SDS011;3637;51.494;11.958;2023-10-19T06:36:42;28.47;;;18.73;;
7191;SDS011;3637;51.494;11.958;2023-10-19T06:39:45;25.20;;;17.83;;
7191;SDS011;3637;51.494;11.958;2023-10-19T06:42:47;27.20;;;18.97;;
7191;SDS011;3637;51.494;11.958;2023-10-19T06:45:51;26.20;;;17.73;;
7191;SDS011;3637;51.494;11.958;2023-10-19T06:48:55;24.77;;;17.60;;
7191;SDS011;3637;51.494;11.958;2023-10-19T06:52:00;23.93;;;16.93;;
7191;SDS011;3637;51.494;11.958;2023-10-19T06:55:05;25.37;;;18.23;;
7191;SDS011;3637;51.494;11.958;2023-10-19T06:58:13;26.37;;;17.13;;
7191;SDS011;3637;51.494;11.958;2023-10-19T07:01:16;23.57;;;17.87;;
7191;SDS011;3637;51.494;11.958;2023-10-19T07:04:18;25.00;;;18.03;;
7191;SDS011;3637;51.494;11.958;2023-10-19T07:07:20;27.93;;;17.87;;
7191;SDS011;3637;51.494;11.958;2023-10-19T07:10:22;25.00;;;17.80;;
7191;SDS011;3637;51.494;11.958;2023-10-19T07:13:25;24.67;;;17.00;;
7191;SDS011;3637;51.494;11.958;2023-10-19T07:16:28;24.97;;;17.27;;
7191;SDS011;3637;51.494;11.958;2023-10-19T07:19:30;25.43;;;17.23;;
7191;SDS011;3637;51.494;11.958;2023-10-19T07:22:32;23.00;;;16.87;;
7191;SDS011;3637;51.494;11.958;2023-10-19T07:25:34;22.90;;;16.17;;
7191;SDS011;3637;51.494;11.958;2023-10-19T07:28:43;23.73;;;16.87;;
7191;SDS011;3637;51.494;11.958;2023-10-19T07:31:46;22.07;;;16.70;;
7191;SDS011;3637;51.494;11.958;2023-10-19T07:34:48;22.10;;;16.37;;
7191;SDS011;3637;51.494;11.958;2023-10-19T07:37:49;22.07;;;16.27;;
7191;SDS011;3637;51.494;11.958;2023-10-19T07:40:51;27.77;;;16.40;;
7191;SDS011;3637;51.494;11.958;2023-10-19T07:43:53;22.20;;;15.87;;
7191;SDS011;3637;51.494;11.958;2023-10-19T07:46:57;21.43;;;16.20;;
7191;SDS011;3637;51.494;11.958;2023-10-19T07:49:58;20.93;;;16.33;;
7191;SDS011;3637;51.494;11.958;2023-10-19T07:53:03;24.33;;;16.43;;
7191;SDS011;3637;51.494;11.958;2023-10-19T07:56:05;22.13;;;16.23;;
7191;SDS011;3637;51.494;11.958;2023-10-19T07:59:08;21.27;;;16.07;;
7191;SDS011;3637;51.494;11.958;2023-10-19T08:02:11;23.67;;;17.17;;
7191;SDS011;3637;51.494;11.958;2023-10-19T08:05:13;22.13;;;16.80;;
7191;SDS011;3637;51.494;11.958;2023-10-19T08:08:16;20.27;;;15.17;;
7191;SDS011;3637;51.494;11.958;2023-10-19T08:11:17;22.90;;;16.40;;
7191;SDS011;3637;51.494;11.958;2023-10-19T08:14:20;22.93;;;16.67;;
7191;SDS011;3637;51.494;11.958;2023-10-19T08:17:23;21.73;;;15.50;;
7191;SDS011;3637;51.494;11.958;2023-10-19T08:20:25;23.63;;;16.43;;
7191;SDS011;3637;51.494;11.958;2023-10-19T08:23:30;21.20;;;15.20;;
7191;SDS011;3637;51.494;11.958;2023-10-19T08:26:32;21.07;;;15.93;;
7191;SDS011;3637;51.494;11.958;2023-10-19T08:29:36;21.23;;;16.00;;
7191;SDS011;3637;51.494;11.958;2023-10-19T08:32:39;20.97;;;15.13;;
7191;SDS011;3637;51.494;11.958;2023-10-19T08:35:42;20.80;;;15.40;;
7191;SDS011;3637;51.494;11.958;2023-10-19T08:38:44;20.00;;;15.80;;
7191;SDS011;3637;51.494;11.958;2023-10-19T08:41:46;19.43;;;15.23;;
7191;SDS011;3637;51.494;11.958;2023-10-19T08:44:53;21.43;;;15.27;;
7191;SDS011;3637;51.494;11.958;2023-10-19T08:47:56;18.37;;;14.93;;
7191;SDS011;3637;51.494;11.958;2023-10-19T08:51:01;19.20;;;15.33;;
7191;SDS011;3637;51.494;11.958;2023-10-19T08:54:04;21.40;;;16.03;;
7191;SDS011;3637;51.494;11.958;2023-10-19T08:57:08;22.20;;;15.17;;
7191;SDS011;3637;51.494;11.958;2023-10-19T09:00:11;20.53;;;15.47;;
7191;SDS011;3637;51.494;11.958;2023-10-19T09:03:19;20.30;;;14.80;;
7191;SDS011;3637;51.494;11.958;2023-10-19T09:06:22;22.43;;;15.67;;
7191;SDS011;3637;51.494;11.958;2023-10-19T09:09:23;20.27;;;14.57;;
7191;SDS011;3637;51.494;11.958;2023-10-19T09:12:26;18.97;;;15.07;;
7191;SDS011;3637;51.494;11.958;2023-10-19T09:15:28;21.83;;;16.40;;
7191;SDS011;3637;51.494;11.958;2023-10-19T09:18:33;21.47;;;17.37;;
7191;SDS011;3637;51.494;11.958;2023-10-19T09:21:35;22.37;;;16.93;;
7191;SDS011;3637;51.494;11.958;2023-10-19T09:24:39;21.50;;;16.60;;
7191;SDS011;3637;51.494;11.958;2023-10-19T09:27:42;20.23;;;17.10;;
7191;SDS011;3637;51.494;11.958;2023-10-19T09:30:44;19.73;;;15.87;;
7191;SDS011;3637;51.494;11.958;2023-10-19T09:33:48;21.73;;;16.73;;
7191;SDS011;3637;51.494;11.958;2023-10-19T09:36:50;21.57;;;16.23;;
7191;SDS011;3637;51.494;11.958;2023-10-19T09:39:53;25.47;;;17.07;;
7191;SDS011;3637;51.494;11.958;2023-10-19T09:42:56;24.33;;;16.97;;
7191;SDS011;3637;51.494;11.958;2023-10-19T09:46:00;19.97;;;16.80;;
7191;SDS011;3637;51.494;11.958;2023-10-19T09:49:09;19.97;;;16.40;;
7191;SDS011;3637;51.494;11.958;2023-10-19T09:52:13;19.10;;;16.70;;
7191;SDS011;3637;51.494;11.958;2023-10-19T09:55:17;21.03;;;16.43;;
7191;SDS011;3637;51.494;11.958;2023-10-19T09:58:24;19.13;;;15.60;;
7191;SDS011;3637;51.494;11.958;2023-10-19T10:01:41;20.90;;;15.83;;
7191;SDS011;3637;51.494;11.958;2023-10-19T10:08:44;20.67;;;16.50;;
7191;SDS011;3637;51.494;11.958;2023-10-19T10:11:47;20.77;;;16.17;;
7191;SDS011;3637;51.494;11.958;2023-10-19T10:14:56;22.00;;;17.20;;
7191;SDS011;3637;51.494;11.958;2023-10-19T10:18:11;20.73;;;15.87;;
7191;SDS011;3637;51.494;11.958;2023-10-19T10:21:14;18.90;;;14.90;;
7191;SDS011;3637;51.494;11.958;2023-10-19T10:24:19;19.80;;;15.03;;
7191;SDS011;3637;51.494;11.958;2023-10-19T10:27:21;18.23;;;14.33;;
7191;SDS011;3637;51.494;11.958;2023-10-19T10:30:23;17.93;;;14.67;;
7191;SDS011;3637;51.494;11.958;2023-10-19T10:33:38;17.30;;;14.30;;
7191;SDS011;3637;51.494;11.958;2023-10-19T10:36:59;18.77;;;15.37;;
7191;SDS011;3637;51.494;11.958;2023-10-19T10:40:04;21.93;;;16.80;;
7191;SDS011;3637;51.494;11.958;2023-10-19T10:43:07;21.03;;;15.37;;
7191;SDS011;3637;51.494;11.958;2023-10-19T10:46:10;18.57;;;14.90;;
7191;SDS011;3637;51.494;11.958;2023-10-19T10:49:14;18.53;;;13.83;;
7191;SDS011;3637;51.494;11.958;2023-10-19T10:52:25;15.33;;;13.73;;
7191;SDS011;3637;51.494;11.958;2023-10-19T10:55:30;16.87;;;13.50;;
7191;SDS011;3637;51.494;11.958;2023-10-19T10:58:32;14.70;;;13.13;;
7191;SDS011;3637;51.494;11.958;2023-10-19T11:01:34;15.17;;;13.57;;
7191;SDS011;3637;51.494;11.958;2023-10-19T11:04:42;15.73;;;13.27;;
7191;SDS011;3637;51.494;11.958;2023-10-19T11:11:07;19.23;;;14.67;;
7191;SDS011;3637;51.494;11.958;2023-10-19T11:14:11;15.13;;;13.47;;
7191;SDS011;3637;51.494;11.958;2023-10-19T11:17:13;16.07;;;13.80;;
7191;SDS011;3637;51.494;11.958;2023-10-19T11:20:22;15.90;;;13.20;;
7191;SDS011;3637;51.494;11.958;2023-10-19T11:23:34;15.53;;;13.07;;
7191;SDS011;3637;51.494;11.958;2023-10-19T11:26:40;16.73;;;12.87;;
7191;SDS011;3637;51.494;11.958;2023-10-19T11:29:53;14.33;;;11.90;;
7191;SDS011;3637;51.494;11.958;2023-10-19T11:32:55;17.33;;;12.80;;
7191;SDS011;3637;51.494;11.958;2023-10-19T11:35:58;16.03;;;12.37;;
7191;SDS011;3637;51.494;11.958;2023-10-19T11:38:59;13.83;;;12.30;;
7191;SDS011;3637;51.494;11.958;2023-10-19T11:42:03;15.43;;;12.93;;
7191;SDS011;3637;51.494;11.958;2023-10-19T11:45:05;14.70;;;12.10;;
7191;SDS011;3637;51.494;11.958;2023-10-19T11:48:08;15.50;;;13.37;;
7191;SDS011;3637;51.494;11.958;2023-10-19T11:51:09;16.20;;;12.93;;
7191;SDS011;3637;51.494;11.958;2023-10-19T11:54:13;14.03;;;11.53;;
7191;SDS011;3637;51.494;11.958;2023-10-19T11:57:18;13.83;;;12.33;;
7191;SDS011;3637;51.494;11.958;2023-10-19T12:00:19;14.80;;;12.03;;
7191;SDS011;3637;51.494;11.958;2023-10-19T12:03:24;15.10;;;12.07;;
7191;SDS011;3637;51.494;11.958;2023-10-19T12:06:26;13.20;;;11.80;;
7191;SDS011;3637;51.494;11.958;2023-10-19T12:09:28;14.20;;;12.20;;
7191;SDS011;3637;51.494;11.958;2023-10-19T12:12:31;15.50;;;12.97;;
7191;SDS011;3637;51.494;11.958;2023-10-19T12:15:33;13.37;;;11.73;;
7191;SDS011;3637;51.494;11.958;2023-10-19T12:18:35;16.60;;;12.03;;
7191;SDS011;3637;51.494;11.958;2023-10-19T12:21:38;13.40;;;11.77;;
7191;SDS011;3637;51.494;11.958;2023-10-19T12:24:41;14.20;;;11.83;;
7191;SDS011;3637;51.494;11.958;2023-10-19T12:27:45;14.00;;;11.63;;
7191;SDS011;3637;51.494;11.958;2023-10-19T12:30:47;13.30;;;11.20;;
7191;SDS011;3637;51.494;11.958;2023-10-19T12:33:48;12.17;;;10.87;;
7191;SDS011;3637;51.494;11.958;2023-10-19T12:36:50;14.23;;;11.77;;
7191;SDS011;3637;51.494;11.958;2023-10-19T12:39:52;14.07;;;11.90;;
7191;SDS011;3637;51.494;11.958;2023-10-19T12:42:56;15.97;;;13.10;;
7191;SDS011;3637;51.494;11.958;2023-10-19T12:46:03;12.83;;;11.47;;
7191;SDS011;3637;51.494;11.958;2023-10-19T12:49:08;15.50;;;12.43;;
7191;SDS011;3637;51.494;11.958;2023-10-19T12:52:14;14.20;;;11.57;;
7191;SDS011;3637;51.494;11.958;2023-10-19T12:55:16;14.97;;;12.57;;
7191;SDS011;3637;51.494;11.958;2023-10-19T12:58:19;14.73;;;12.23;;
7191;SDS011;3637;51.494;11.958;2023-10-19T13:01:22;17.60;;;12.97;;
7191;SDS011;3637;51.494;11.958;2023-10-19T13:04:23;15.83;;;13.43;;
7191;SDS011;3637;51.494;11.958;2023-10-19T13:07:25;16.20;;;13.33;;
7191;SDS011;3637;51.494;11.958;2023-10-19T13:10:28;16.77;;;13.33;;
7191;SDS011;3637;51.494;11.958;2023-10-19T13:13:33;17.50;;;13.43;;
7191;SDS011;3637;51.494;11.958;2023-10-19T13:16:36;16.03;;;13.40;;
7191;SDS011;3637;51.494;11.958;2023-10-19T13:19:38;16.63;;;13.00;;
7191;SDS011;3637;51.494;11.958;2023-10-19T13:22:40;16.70;;;13.60;;
7191;SDS011;3637;51.494;11.958;2023-10-19T13:25:42;14.73;;;13.20;;
7191;SDS011;3637;51.494;11.958;2023-10-19T13:28:51;15.10;;;13.33;;
7191;SDS011;3637;51.494;11.958;2023-10-19T13:31:55;16.53;;;12.83;;
7191;SDS011;3637;51.494;11.958;2023-10-19T13:34:57;16.00;;;13.10;;
7191;SDS011;3637;51.494;11.958;2023-10-19T13:37:59;17.67;;;14.43;;
7191;SDS011;3637;51.494;11.958;2023-10-19T13:41:02;15.83;;;14.00;;
7191;SDS011;3637;51.494;11.958;2023-10-19T13:44:08;17.23;;;14.10;;
7191;SDS011;3637;51.494;11.958;2023-10-19T13:47:11;15.27;;;13.13;;
7191;SDS011;3637;51.494;11.958;2023-10-19T13:50:13;16.73;;;14.10;;
7191;SDS011;3637;51.494;11.958;2023-10-19T13:53:15;19.27;;;13.40;;
7191;SDS011;3637;51.494;11.958;2023-10-19T13:56:18;17.73;;;14.40;;
7191;SDS011;3637;51.494;11.958;2023-10-19T13:59:21;18.53;;;14.90;;
7191;SDS011;3637;51.494;11.958;2023-10-19T14:02:23;17.13;;;14.83;;
7191;SDS011;3637;51.494;11.958;2023-10-19T14:05:25;21.10;;;16.87;;
7191;SDS011;3637;51.494;11.958;2023-10-19T14:08:28;17.07;;;14.23;;
7191;SDS011;3637;51.494;11.958;2023-10-19T14:11:31;19.60;;;15.30;;
7191;SDS011;3637;51.494;11.958;2023-10-19T14:14:34;20.33;;;14.97;;
7191;SDS011;3637;51.494;11.958;2023-10-19T14:17:36;17.17;;;14.80;;
7191;SDS011;3637;51.494;11.958;2023-10-19T14:20:37;17.40;;;15.40;;
7191;SDS011;3637;51.494;11.958;2023-10-19T14:23:40;17.67;;;14.37;;
7191;SDS011;3637;51.494;11.958;2023-10-19T14:26:43;16.37;;;13.80;;
7191;SDS011;3637;51.494;11.958;2023-10-19T14:29:48;19.73;;;15.07;;
7191;SDS011;3637;51.494;11.958;2023-10-19T14:32:50;19.50;;;16.17;;
7191;SDS011;3637;51.494;11.958;2023-10-19T14:35:52;17.67;;;15.67;;
7191;SDS011;3637;51.494;11.958;2023-10-19T14:38:54;21.10;;;15.43;;
7191;SDS011;3637;51.494;11.958;2023-10-19T14:41:55;20.80;;;16.00;;
7191;SDS011;3637;51.494;11.958;2023-10-19T14:44:59;19.00;;;15.43;;
7191;SDS011;3637;51.494;11.958;2023-10-19T14:48:01;18.97;;;14.93;;
7191;SDS011;3637;51.494;11.958;2023-10-19T14:51:04;17.53;;;15.63;;
7191;SDS011;3637;51.494;11.958;2023-10-19T14:54:07;21.57;;;15.23;;
7191;SDS011;3637;51.494;11.958;2023-10-19T14:57:08;21.43;;;16.40;;
7191;SDS011;3637;51.494;11.958;2023-10-19T15:00:12;19.43;;;16.53;;
7191;SDS011;3637;51.494;11.958;2023-10-19T15:03:16;19.93;;;16.97;;
7191;SDS011;3637;51.494;11.958;2023-10-19T15:06:19;20.00;;;16.27;;
7191;SDS011;3637;51.494;11.958;2023-10-19T15:09:21;17.50;;;15.60;;
7191;SDS011;3637;51.494;11.958;2023-10-19T15:12:25;20.47;;;17.07;;
7191;SDS011;3637;51.494;11.958;2023-10-19T15:15:28;21.07;;;17.07;;
7191;SDS011;3637;51.494;11.958;2023-10-19T15:18:32;20.77;;;16.33;;
7191;SDS011;3637;51.494;11.958;2023-10-19T15:21:36;22.07;;;17.63;;
7191;SDS011;3637;51.494;11.958;2023-10-19T15:24:38;21.70;;;17.23;;
7191;SDS011;3637;51.494;11.958;2023-10-19T15:27:41;24.67;;;18.20;;
7191;SDS011;3637;51.494;11.958;2023-10-19T15:30:45;21.53;;;16.63;;
7191;SDS011;3637;51.494;11.958;2023-10-19T15:33:47;20.23;;;17.87;;
7191;SDS011;3637;51.494;11.958;2023-10-19T15:36:48;20.47;;;17.20;;
7191;SDS011;3637;51.494;11.958;2023-10-19T15:39:50;25.03;;;18.90;;
7191;SDS011;3637;51.494;11.958;2023-10-19T15:42:52;23.47;;;18.87;;
7191;SDS011;3637;51.494;11.958;2023-10-19T15:45:58;21.60;;;17.77;;
7191;SDS011;3637;51.494;11.958;2023-10-19T15:49:02;23.10;;;17.73;;
7191;SDS011;3637;51.494;11.958;2023-10-19T15:52:04;24.27;;;18.60;;
7191;SDS011;3637;51.494;11.958;2023-10-19T15:55:06;23.87;;;18.23;;
7191;SDS011;3637;51.494;11.958;2023-10-19T15:58:08;21.73;;;18.47;;
7191;SDS011;3637;51.494;11.958;2023-10-19T16:01:12;23.47;;;18.23;;
7191;SDS011;3637;51.494;11.958;2023-10-19T16:04:15;21.40;;;17.20;;
7191;SDS011;3637;51.494;11.958;2023-10-19T16:07:17;24.50;;;18.03;;
7191;SDS011;3637;51.494;11.958;2023-10-19T16:10:19;23.70;;;18.70;;
7191;SDS011;3637;51.494;11.958;2023-10-19T16:13:21;25.27;;;19.70;;
7191;SDS011;3637;51.494;11.958;2023-10-19T16:16:25;21.83;;;17.47;;
7191;SDS011;3637;51.494;11.958;2023-10-19T16:19:27;23.00;;;18.23;;
7191;SDS011;3637;51.494;11.958;2023-10-19T16:22:30;24.27;;;19.10;;
7191;SDS011;3637;51.494;11.958;2023-10-19T16:25:32;26.80;;;19.87;;
7191;SDS011;3637;51.494;11.958;2023-10-19T16:28:34;25.87;;;19.33;;
7191;SDS011;3637;51.494;11.958;2023-10-19T16:31:37;24.80;;;18.67;;
7191;SDS011;3637;51.494;11.958;2023-10-19T16:34:39;24.70;;;19.60;;
7191;SDS011;3637;51.494;11.958;2023-10-19T16:37:41;25.00;;;19.37;;
7191;SDS011;3637;51.494;11.958;2023-10-19T16:40:43;28.00;;;21.07;;
7191;SDS011;3637;51.494;11.958;2023-10-19T16:43:44;28.37;;;20.83;;
7191;SDS011;3637;51.494;11.958;2023-10-19T16:46:48;27.63;;;21.23;;
7191;SDS011;3637;51.494;11.958;2023-10-19T16:49:50;25.57;;;20.60;;
7191;SDS011;3637;51.494;11.958;2023-10-19T16:52:52;28.47;;;21.40;;
7191;SDS011;3637;51.494;11.958;2023-10-19T16:55:56;25.90;;;20.67;;
7191;SDS011;3637;51.494;11.958;2023-10-19T16:58:58;29.93;;;22.07;;
7191;SDS011;3637;51.494;11.958;2023-10-19T17:02:01;29.67;;;23.37;;
7191;SDS011;3637;51.494;11.958;2023-10-19T17:05:03;30.27;;;23.97;;
7191;SDS011;3637;51.494;11.958;2023-10-19T17:08:06;32.43;;;24.30;;
7191;SDS011;3637;51.494;11.958;2023-10-19T17:11:08;35.03;;;25.50;;
7191;SDS011;3637;51.494;11.958;2023-10-19T17:14:10;34.93;;;27.03;;
7191;SDS011;3637;51.494;11.958;2023-10-19T17:17:13;35.70;;;27.63;;
7191;SDS011;3637;51.494;11.958;2023-10-19T17:20:15;38.40;;;27.73;;
7191;SDS011;3637;51.494;11.958;2023-10-19T17:23:16;37.67;;;28.90;;
7191;SDS011;3637;51.494;11.958;2023-10-19T17:26:19;38.27;;;28.10;;
7191;SDS011;3637;51.494;11.958;2023-10-19T17:29:21;34.90;;;26.53;;
7191;SDS011;3637;51.494;11.958;2023-10-19T17:32:24;38.47;;;27.53;;
7191;SDS011;3637;51.494;11.958;2023-10-19T17:35:27;35.77;;;27.07;;
7191;SDS011;3637;51.494;11.958;2023-10-19T17:38:29;34.37;;;26.97;;
7191;SDS011;3637;51.494;11.958;2023-10-19T17:41:31;39.90;;;29.27;;
7191;SDS011;3637;51.494;11.958;2023-10-19T17:44:33;44.80;;;29.93;;
7191;SDS011;3637;51.494;11.958;2023-10-19T17:47:36;37.20;;;28.37;;
7191;SDS011;3637;51.494;11.958;2023-10-19T17:50:38;35.30;;;26.77;;
7191;SDS011;3637;51.494;11.958;2023-10-19T17:53:40;36.77;;;27.07;;
7191;SDS011;3637;51.494;11.958;2023-10-19T17:56:45;36.63;;;26.60;;
7191;SDS011;3637;51.494;11.958;2023-10-19T17:59:50;35.53;;;26.63;;
7191;SDS011;3637;51.494;11.958;2023-10-19T18:02:53;33.40;;;26.43;;
7191;SDS011;3637;51.494;11.958;2023-10-19T18:05:55;36.30;;;27.53;;
7191;SDS011;3637;51.494;11.958;2023-10-19T18:08:59;35.70;;;27.33;;
7191;SDS011;3637;51.494;11.958;2023-10-19T18:12:01;35.03;;;26.37;;
7191;SDS011;3637;51.494;11.958;2023-10-19T18:15:03;37.83;;;26.63;;